Latest Weather Observations for Frankston

IDV60801

Issued at 2:32 am EDT Thursday 15 November 2018 (issued every 10 minutes, with the page automatically refreshed every 10 minutes)

About weather observations | Map of weather stations | Latest weather observations for VIC | Other Formats
Station Details ID: 086371 Name: FRANKSTON AWS Lat: -38.15 Lon: 145.12 Height: 6.0 m
Data from the previous 72 hours. | See also: Recent months at Frankston
Date/Time
EDT
Temp
°C
App
Temp
°C
Dew
Point
°C
Rel
Hum
%
Delta-T
°C
Wind Press
QNH
hPa
Press
MSL
hPa
Rain since
9am
mm
Dir  Spd
km/h
Gust
km/h
Spd
kts
Gust
kts
15/02:30am - - - - - S 9 11 5 6 - - -
15/02:00am - - - - - SSW 9 13 5 7 - - -
15/01:30am - - - - - SW 13 15 7 8 - - -
15/01:00am - - - - - SSW 9 13 5 7 - - -
15/12:30am - - - - - SSW 9 13 5 7 - - -
15/12:00am - - - - - SSW 9 13 5 7 - - -
 
Date/Time
EDT
Temp
°C
App
Temp
°C
Dew
Point
°C
Rel
Hum
%
Delta-T
°C
Wind Press
QNH
hPa
Press
MSL
hPa
Rain since
9am
mm
Dir  Spd
km/h
Gust
km/h
Spd
kts
Gust
kts
14/11:30pm - - - - - SW 13 20 7 11 - - -
14/11:00pm - - - - - SW 6 9 3 5 - - -
14/10:30pm - - - - - CALM 0 6 0 3 - - -
14/10:00pm - - - - - SSE 6 9 3 5 - - -
14/09:30pm - - - - - S 7 9 4 5 - - -
14/09:00pm - - - - - SSW 11 19 6 10 - - -
14/08:30pm - - - - - S 7 13 4 7 - - -
14/08:00pm - - - - - SSW 13 17 7 9 - - -
14/07:30pm - - - - - SSW 11 17 6 9 - - -
14/07:00pm - - - - - SSW 11 19 6 10 - - -
14/06:30pm - - - - - WSW 9 19 5 10 - - -
14/06:00pm - - - - - SW 9 13 5 7 - - -
14/05:30pm - - - - - SSW 11 17 6 9 - - -
14/05:00pm - - - - - WSW 17 22 9 12 - - -
14/04:30pm - - - - - WSW 22 28 12 15 - - -
14/04:00pm - - - - - WSW 22 28 12 15 - - -
14/03:30pm - - - - - WSW 22 26 12 14 - - -
14/03:00pm - - - - - WSW 24 28 13 15 - - -
14/02:30pm - - - - - WSW 24 28 13 15 - - -
14/02:00pm - - - - - WSW 19 20 10 11 - - -
14/01:30pm - - - - - WSW 13 17 7 9 - - -
14/01:00pm - - - - - W 9 13 5 7 - - -
14/12:30pm - - - - - W 9 13 5 7 - - -
14/12:00pm - - - - - WSW 17 19 9 10 - - -
14/11:30am - - - - - WSW 15 22 8 12 - - -
14/11:00am - - - - - S 7 11 4 6 - - -
14/10:30am - - - - - S 9 11 5 6 - - -
14/10:00am - - - - - SSW 11 17 6 9 - - -
14/09:30am - - - - - S 9 13 5 7 - - -
14/09:00am - - - - - SSE 7 11 4 6 - - -
14/08:30am - - - - - SW 9 13 5 7 - - -
14/08:00am - - - - - SSW 7 13 4 7 - - -
14/07:30am - - - - - SW 9 13 5 7 - - -
14/07:00am - - - - - SSW 9 9 5 5 - - -
14/06:30am - - - - - SW 9 13 5 7 - - -
14/06:00am - - - - - SW 9 11 5 6 - - -
14/05:30am - - - - - SW 9 13 5 7 - - -
14/05:00am - - - - - SW 11 13 6 7 - - -
14/04:30am - - - - - WSW 13 15 7 8 - - -
14/04:00am - - - - - SW 9 13 5 7 - - -
14/03:30am - - - - - WSW 11 13 6 7 - - -
14/03:00am - - - - - W 15 17 8 9 - - -
14/02:30am - - - - - WSW 19 24 10 13 - - -
14/02:00am - - - - - WSW 17 22 9 12 - - -
14/01:30am - - - - - WSW 20 22 11 12 - - -
14/01:00am - - - - - W 17 20 9 11 - - -
14/12:30am - - - - - W 13 17 7 9 - - -
14/12:00am - - - - - WSW 15 24 8 13 - - -
 
Date/Time
EDT
Temp
°C
App
Temp
°C
Dew
Point
°C
Rel
Hum
%
Delta-T
°C
Wind Press
QNH
hPa
Press
MSL
hPa
Rain since
9am
mm
Dir  Spd
km/h
Gust
km/h
Spd
kts
Gust
kts
13/11:30pm - - - - - W 22 26 12 14 - - -
13/11:00pm - - - - - W 24 30 13 16 - - -
13/10:30pm - - - - - W 17 22 9 12 - - -
13/10:00pm - - - - - WSW 9 15 5 8 - - -
13/09:30pm - - - - - WSW 13 19 7 10 - - -
13/09:00pm - - - - - SSW 20 30 11 16 - - -
13/08:30pm - - - - - W 33 41 18 22 - - -
13/08:00pm - - - - - W 28 33 15 18 - - -
13/07:30pm - - - - - WSW 24 30 13 16 - - -
13/07:00pm - - - - - WSW 33 46 18 25 - - -
13/06:53pm - - - - - W 26 46 14 25 - - -
13/06:30pm - - - - - NNE 32 50 17 27 - - -
13/06:26pm - - - - - NNE 37 56 20 30 - - -
13/06:00pm - - - - - NNE 35 46 19 25 - - -
13/05:30pm - - - - - NNE 37 46 20 25 - - -
13/05:00pm - - - - - N 37 46 20 25 - - -
13/04:30pm - - - - - N 37 46 20 25 - - -
13/04:00pm - - - - - N 30 39 16 21 - - -
13/03:30pm - - - - - N 33 41 18 22 - - -
13/03:00pm - - - - - N 33 41 18 22 - - -
13/02:30pm - - - - - N 35 39 19 21 - - -
13/02:00pm - - - - - NNE 37 44 20 24 - - -
13/01:30pm - - - - - N 33 43 18 23 - - -
13/01:00pm - - - - - N 33 44 18 24 - - -
13/12:30pm - - - - - N 28 39 15 21 - - -
13/12:00pm - - - - - NNE 26 39 14 21 - - -
13/11:30am - - - - - NE 13 26 7 14 - - -
13/11:00am - - - - - E 11 19 6 10 - - -
13/10:30am - - - - - E 11 17 6 9 - - -
13/10:00am - - - - - E 9 15 5 8 - - -
13/09:30am - - - - - NE 2 6 1 3 - - -
13/09:00am - - - - - E 6 9 3 5 - - -
13/08:30am - - - - - CALM 0 0 0 0 - - -
13/08:00am - - - - - CALM 0 0 0 0 - - -
13/07:30am - - - - - WSW 11 15 6 8 - - -
13/07:00am - - - - - SW 22 28 12 15 - - -
13/06:46am - - - - - SE 15 41 8 22 - - -
13/06:30am - - - - - SE 9 11 5 6 - - -
13/06:00am - - - - - ESE 6 7 3 4 - - -
13/05:30am - - - - - SE 11 13 6 7 - - -
13/05:00am - - - - - ESE 13 15 7 8 - - -
13/04:30am - - - - - SE 13 17 7 9 - - -
13/04:00am - - - - - SE 13 17 7 9 - - -
13/03:30am - - - - - SE 15 19 8 10 - - -
13/03:00am - - - - - SE 13 19 7 10 - - -
13/02:30am - - - - - ESE 13 15 7 8 - - -
13/02:00am - - - - - SE 13 19 7 10 - - -
13/01:30am - - - - - ESE 15 24 8 13 - - -
13/01:00am - - - - - ESE 15 20 8 11 - - -
13/12:30am - - - - - ESE 15 19 8 10 - - -
13/12:00am - - - - - ESE 13 20 7 11 - - -
 
Date/Time
EDT
Temp
°C
App
Temp
°C
Dew
Point
°C
Rel
Hum
%
Delta-T
°C
Wind Press
QNH
hPa
Press
MSL
hPa
Rain since
9am
mm
Dir  Spd
km/h
Gust
km/h
Spd
kts
Gust
kts
12/11:30pm - - - - - E 15 24 8 13 - - -
12/11:00pm - - - - - E 13 17 7 9 - - -
12/10:30pm - - - - - E 15 19 8 10 - - -
12/10:00pm - - - - - E 15 19 8 10 - - -
12/09:30pm - - - - - E 15 19 8 10 - - -
12/09:00pm - - - - - E 13 17 7 9 - - -
12/08:30pm - - - - - ESE 9 13 5 7 - - -
12/08:00pm - - - - - E 11 17 6 9 - - -
12/07:30pm - - - - - E 11 17 6 9 - - -
12/07:00pm - - - - - ENE 13 17 7 9 - - -
12/06:30pm - - - - - E 11 17 6 9 - - -
12/06:00pm - - - - - E 7 11 4 6 - - -
12/05:30pm - - - - - CALM 0 0 0 0 - - -
12/05:00pm - - - - - CALM 0 0 0 0 - - -
12/04:30pm - - - - - CALM 0 0 0 0 - - -
12/04:00pm - - - - - CALM 0 0 0 0 - - -
12/03:30pm - - - - - CALM 0 0 0 0 - - -
12/03:00pm - - - - - CALM 0 0 0 0 - - -
12/02:30pm - - - - - CALM 0 0 0 0 - - -
12/02:00pm - - - - - CALM 0 6 0 3 - - -
12/01:30pm - - - - - SW 6 9 3 5 - - -
12/01:00pm - - - - - WSW 7 11 4 6 - - -
12/12:30pm - - - - - CALM 0 0 0 0 - - -
12/12:00pm - - - - - NNE 4 11 2 6 - - -
12/11:30am - - - - - WSW 6 7 3 4 - - -
12/11:00am - - - - - W 7 9 4 5 - - -
12/10:30am - - - - - W 6 7 3 4 - - -
12/10:00am - - - - - CALM 0 0 0 0 - - -
12/09:30am - - - - - NNW 6 7 3 4 - - -
12/09:00am - - - - - N 9 11 5 6 - - -
12/08:30am - - - - - E 7 9 4 5 - - -
12/08:00am - - - - - ENE 7 11 4 6 - - -
12/07:30am - - - - - E 9 13 5 7 - - -
12/07:00am - - - - - SE 7 11 4 6 - - -
12/06:30am - - - - - SE 9 11 5 6 - - -
12/06:00am - - - - - SE 11 13 6 7 - - -
12/05:30am - - - - - SE 9 11 5 6 - - -
12/05:00am - - - - - ESE 9 11 5 6 - - -
12/04:30am - - - - - ESE 9 13 5 7 - - -
12/04:00am - - - - - ESE 13 15 7 8 - - -
12/03:30am - - - - - ESE 13 15 7 8 - - -
12/03:00am - - - - - ESE 11 15 6 8 - - -

Other Formats:

Comma delimited format used in spreadsheet applications
http://www.bom.gov.au/fwo/IDV60801/IDV60801.94871.axf

JavaScript Object Notation format (JSON) in row-major order
http://www.bom.gov.au/fwo/IDV60801/IDV60801.94871.json